createdAt,value
2016-04-22T00:00:09.347Z,8.2
2016-04-22T00:00:19.350Z,8.18
2016-04-22T00:00:29.350Z,8.17
2016-04-22T00:00:39.350Z,8.18
2016-04-22T00:00:49.366Z,8.17
2016-04-22T00:00:59.366Z,8.18
2016-04-22T00:01:09.366Z,8.2
2016-04-22T00:01:19.369Z,8.18
2016-04-22T00:01:29.385Z,8.18
2016-04-22T00:01:39.385Z,8.21
2016-04-22T00:01:49.400Z,8.17
2016-04-22T00:01:59.400Z,8.26
2016-04-22T00:02:09.400Z,8.16
2016-04-22T00:02:19.403Z,8.23
2016-04-22T00:02:29.403Z,8.17
2016-04-22T00:02:39.403Z,8.18
2016-04-22T00:02:49.419Z,8.21
2016-04-22T00:02:59.419Z,8.18
2016-04-22T00:03:09.435Z,8.16
2016-04-22T00:03:19.437Z,8.2
2016-04-22T00:03:29.437Z,8.18
2016-04-22T00:03:39.441Z,8.17
2016-04-22T00:03:49.441Z,8.2
2016-04-22T00:03:59.462Z,8.24
2016-04-22T00:04:09.462Z,8.16
2016-04-22T00:04:19.464Z,8.17
2016-04-22T00:04:29.480Z,8.11
2016-04-22T00:04:39.464Z,8.09
2016-04-22T00:04:49.480Z,8.2
2016-04-22T00:04:59.480Z,8.13
2016-04-22T00:05:09.480Z,8.11
2016-04-22T00:05:19.498Z,8.17
2016-04-22T00:05:29.498Z,8.13
2016-04-22T00:05:39.498Z,8.09
2016-04-22T00:05:49.498Z,8.14
2016-04-22T00:05:59.514Z,8.14
2016-04-22T00:06:09.514Z,8.08
2016-04-22T00:06:19.517Z,8.08
2016-04-22T00:06:29.533Z,8.08
2016-04-22T00:06:39.517Z,8.05
2016-04-22T00:06:49.533Z,8.08
2016-04-22T00:06:59.533Z,8.16
2016-04-22T00:07:09.533Z,8.06
2016-04-22T00:07:19.551Z,8.11
2016-04-22T00:07:29.551Z,8.11
2016-04-22T00:07:39.567Z,8.09
2016-04-22T00:07:49.567Z,8.03
2016-04-22T00:07:59.567Z,8.08
2016-04-22T00:08:09.567Z,8.14
2016-04-22T00:08:19.584Z,8.03
2016-04-22T00:08:29.569Z,8.02
2016-04-22T00:08:39.584Z,8.01
2016-04-22T00:08:49.584Z,8.06
2016-04-22T00:08:59.584Z,8.03
2016-04-22T00:09:09.584Z,8.02
2016-04-22T00:09:19.587Z,8.02
2016-04-22T00:09:29.619Z,8.05
2016-04-22T00:09:39.603Z,8.03
2016-04-22T00:09:49.619Z,8.05
2016-04-22T00:09:59.619Z,8.03
2016-04-22T00:10:09.619Z,7.99
2016-04-22T00:10:19.622Z,8.03
2016-04-22T00:10:29.637Z,8.01
2016-04-22T00:10:39.637Z,8.03
2016-04-22T00:10:49.637Z,8.08
2016-04-22T00:10:59.637Z,8.02
2016-04-22T00:11:09.653Z,8.03
2016-04-22T00:11:19.655Z,8.02
2016-04-22T00:11:29.655Z,8.02
2016-04-22T00:11:39.655Z,8.03
2016-04-22T00:11:49.671Z,8.05
2016-04-22T00:11:59.671Z,7.98
2016-04-22T00:12:09.671Z,8.02
2016-04-22T00:12:19.674Z,7.98
2016-04-22T00:12:29.689Z,7.99
2016-04-22T00:12:39.689Z,8.06
2016-04-22T00:12:49.689Z,8.09
2016-04-22T00:12:59.705Z,7.96
2016-04-22T00:13:09.705Z,8.01
2016-04-22T00:13:19.708Z,8.01
2016-04-22T00:13:29.708Z,8.01
2016-04-22T00:13:39.708Z,7.95
2016-04-22T00:13:49.723Z,7.99
2016-04-22T00:13:59.723Z,8.06
2016-04-22T00:14:09.723Z,7.87
2016-04-22T00:14:19.742Z,8.03
2016-04-22T00:14:29.742Z,8.02
2016-04-22T00:14:39.742Z,7.93
2016-04-22T00:14:49.742Z,7.96
2016-04-22T00:14:59.758Z,8.02
2016-04-22T00:15:09.758Z,7.87
2016-04-22T00:15:19.760Z,7.96
2016-04-22T00:15:29.760Z,7.99
2016-04-22T00:15:39.775Z,7.98
2016-04-22T00:15:49.775Z,7.87
2016-04-22T00:15:59.775Z,7.91
2016-04-22T00:16:09.775Z,7.98
2016-04-22T00:16:19.794Z,7.95
2016-04-22T00:16:29.794Z,7.96
2016-04-22T00:16:39.794Z,7.98
2016-04-22T00:16:49.810Z,7.9
2016-04-22T00:16:59.810Z,7.98
2016-04-22T00:17:09.810Z,7.99
2016-04-22T00:17:19.812Z,7.9
2016-04-22T00:17:29.827Z,7.98
2016-04-22T00:17:39.827Z,7.87
2016-04-22T00:17:49.827Z,7.9
2016-04-22T00:17:59.843Z,7.95
2016-04-22T00:18:09.843Z,7.88
2016-04-22T00:18:19.847Z,7.96
2016-04-22T00:18:29.847Z,7.95
2016-04-22T00:18:39.847Z,7.81
2016-04-22T00:18:49.862Z,7.88
2016-04-22T00:18:59.862Z,7.88
2016-04-22T00:19:09.862Z,7.84
2016-04-22T00:19:19.864Z,7.81
2016-04-22T00:19:29.880Z,7.81
2016-04-22T00:19:39.880Z,7.81
2016-04-22T00:19:49.880Z,7.87
2016-04-22T00:19:59.896Z,7.83
2016-04-22T00:20:09.896Z,7.85
2016-04-22T00:20:19.899Z,7.85
2016-04-22T00:20:29.899Z,7.83
2016-04-22T00:20:39.914Z,7.85
2016-04-22T00:20:49.914Z,7.83
2016-04-22T00:20:59.914Z,7.8
2016-04-22T00:21:09.914Z,7.85
2016-04-22T00:21:19.932Z,7.83
2016-04-22T00:21:29.932Z,7.78
2016-04-22T00:21:39.932Z,7.81
2016-04-22T00:21:49.932Z,7.98
2016-04-22T00:21:59.948Z,7.81
2016-04-22T00:22:09.948Z,7.84
2016-04-22T00:22:19.951Z,7.81
2016-04-22T00:22:29.966Z,7.75
2016-04-22T00:22:39.966Z,7.85
2016-04-22T00:22:49.966Z,7.72
2016-04-22T00:22:59.966Z,7.69
2016-04-22T00:23:09.966Z,7.67
2016-04-22T00:23:19.985Z,7.78
2016-04-22T00:23:29.985Z,7.72
2016-04-22T00:23:39.985Z,7.67
2016-04-22T00:23:50.000Z,7.75
2016-04-22T00:24:00.000Z,7.7
2016-04-22T00:24:10.000Z,7.77
2016-04-22T00:24:20.019Z,7.84
2016-04-22T00:24:30.019Z,7.9
2016-04-22T00:24:40.019Z,7.83
2016-04-22T00:24:50.019Z,7.75
2016-04-22T00:25:00.019Z,7.75
2016-04-22T00:25:10.035Z,7.75
2016-04-22T00:25:20.037Z,7.75
2016-04-22T00:25:30.037Z,7.77
2016-04-22T00:25:40.052Z,7.75
2016-04-22T00:25:50.052Z,7.8
2016-04-22T00:26:00.052Z,7.78
2016-04-22T00:26:10.052Z,7.75
2016-04-22T00:26:20.071Z,7.77
2016-04-22T00:26:30.071Z,7.74
2016-04-22T00:26:40.071Z,7.8
2016-04-22T00:26:50.071Z,7.78
2016-04-22T00:27:00.087Z,7.78
2016-04-22T00:27:10.087Z,7.83
2016-04-22T00:27:20.090Z,7.75
2016-04-22T00:27:30.105Z,7.81
2016-04-22T00:27:40.121Z,7.72
2016-04-22T00:27:50.105Z,7.7
2016-04-22T00:28:00.105Z,7.74
2016-04-22T00:28:10.105Z,7.83
2016-04-22T00:28:20.138Z,7.77
2016-04-22T00:28:30.123Z,7.69
2016-04-22T00:28:40.123Z,7.69
2016-04-22T00:28:50.138Z,7.74
2016-04-22T00:29:00.138Z,7.81
2016-04-22T00:29:10.138Z,7.77
2016-04-22T00:29:20.157Z,7.78
2016-04-22T00:29:30.157Z,7.69
2016-04-22T00:29:40.157Z,7.69
2016-04-22T00:29:50.157Z,7.81
2016-04-22T00:30:00.157Z,7.81
2016-04-22T00:30:10.173Z,7.69
2016-04-22T00:30:20.176Z,7.8
2016-04-22T00:30:30.176Z,7.74
2016-04-22T00:30:40.191Z,7.75
2016-04-22T00:30:50.191Z,7.67
2016-04-22T00:31:00.191Z,7.77
2016-04-22T00:31:10.191Z,7.67
2016-04-22T00:31:20.194Z,7.74
2016-04-22T00:31:30.210Z,7.75
2016-04-22T00:31:40.226Z,7.75
2016-04-22T00:31:50.210Z,7.74
2016-04-22T00:32:00.226Z,7.74
2016-04-22T00:32:10.226Z,7.75
2016-04-22T00:32:20.228Z,7.78
2016-04-22T00:32:30.228Z,7.78
2016-04-22T00:32:40.243Z,7.72
2016-04-22T00:32:50.243Z,7.7
2016-04-22T00:33:00.259Z,7.74
2016-04-22T00:33:10.259Z,7.66
2016-04-22T00:33:20.262Z,7.7
2016-04-22T00:33:30.277Z,7.67
2016-04-22T00:33:40.262Z,7.66
2016-04-22T00:33:50.277Z,7.69
2016-04-22T00:34:00.277Z,7.75
2016-04-22T00:34:10.277Z,7.77
2016-04-22T00:34:20.279Z,7.78
2016-04-22T00:34:30.295Z,7.69
2016-04-22T00:34:40.295Z,7.75
2016-04-22T00:34:50.295Z,7.72
2016-04-22T00:35:00.311Z,7.62
2016-04-22T00:35:10.311Z,7.55
2016-04-22T00:35:20.314Z,7.7
2016-04-22T00:35:30.314Z,7.72
2016-04-22T00:35:40.315Z,7.69
2016-04-22T00:35:50.330Z,7.7
2016-04-22T00:36:00.330Z,7.64
2016-04-22T00:36:10.346Z,7.66
2016-04-22T00:36:20.333Z,7.74
2016-04-22T00:36:30.349Z,7.62
2016-04-22T00:36:40.349Z,7.58
2016-04-22T00:36:50.349Z,7.58
2016-04-22T00:37:00.364Z,7.58
2016-04-22T00:37:10.364Z,7.64
2016-04-22T00:37:20.367Z,7.62
2016-04-22T00:37:30.367Z,7.58
2016-04-22T00:37:40.383Z,7.56
2016-04-22T00:37:50.383Z,7.66
2016-04-22T00:38:00.383Z,7.62
2016-04-22T00:38:10.383Z,7.59
2016-04-22T00:38:20.402Z,7.62
2016-04-22T00:38:30.402Z,7.61
2016-04-22T00:38:40.402Z,7.66
2016-04-22T00:38:50.402Z,7.67
2016-04-22T00:39:00.417Z,7.64
2016-04-22T00:39:10.417Z,7.64
2016-04-22T00:39:20.419Z,7.58
2016-04-22T00:39:30.435Z,7.61
2016-04-22T00:39:40.435Z,7.59
2016-04-22T00:39:50.435Z,7.61
2016-04-22T00:40:00.451Z,7.55
2016-04-22T00:40:10.451Z,7.64
2016-04-22T00:40:20.454Z,7.59
2016-04-22T00:40:30.469Z,7.61
2016-04-22T00:40:40.454Z,7.64
2016-04-22T00:40:50.469Z,7.59
2016-04-22T00:41:00.469Z,7.58
2016-04-22T00:41:10.469Z,7.59
2016-04-22T00:41:20.472Z,7.56
2016-04-22T00:41:30.488Z,7.58
2016-04-22T00:41:40.488Z,7.59
2016-04-22T00:41:50.488Z,7.56
2016-04-22T00:42:00.488Z,7.61
2016-04-22T00:42:10.503Z,7.56
2016-04-22T00:42:20.505Z,7.56
2016-04-22T00:42:30.505Z,7.61
2016-04-22T00:42:40.521Z,7.56
2016-04-22T00:42:50.521Z,7.59
2016-04-22T00:43:00.521Z,7.58
2016-04-22T00:43:10.521Z,7.64
2016-04-22T00:43:20.539Z,7.59
2016-04-22T00:43:30.539Z,7.53
2016-04-22T00:43:40.539Z,7.56
2016-04-22T00:43:50.554Z,7.56
2016-04-22T00:44:00.554Z,7.56
2016-04-22T00:44:10.554Z,7.53
2016-04-22T00:44:20.558Z,7.56
2016-04-22T00:44:30.558Z,7.59
2016-04-22T00:44:40.574Z,7.58
2016-04-22T00:44:50.574Z,7.53
2016-04-22T00:45:00.574Z,7.55
2016-04-22T00:45:10.574Z,7.59
2016-04-22T00:45:20.592Z,7.55
2016-04-22T00:45:30.592Z,7.62
2016-04-22T00:45:40.592Z,7.55
2016-04-22T00:45:50.607Z,7.55
2016-04-22T00:46:00.607Z,7.51
2016-04-22T00:46:10.607Z,7.58
2016-04-22T00:46:20.610Z,7.55
2016-04-22T00:46:30.626Z,7.51
2016-04-22T00:46:40.626Z,7.53
2016-04-22T00:46:50.626Z,7.5
2016-04-22T00:47:00.626Z,7.55
2016-04-22T00:47:10.626Z,7.55
2016-04-22T00:47:20.643Z,7.51
2016-04-22T00:47:30.643Z,7.55
2016-04-22T00:47:40.643Z,7.55
2016-04-22T00:47:50.659Z,7.5
2016-04-22T00:48:00.659Z,7.44
2016-04-22T00:48:10.659Z,7.44
2016-04-22T00:48:20.662Z,7.43
2016-04-22T00:48:30.678Z,7.55
2016-04-22T00:48:40.678Z,7.44
2016-04-22T00:48:50.678Z,7.46
2016-04-22T00:49:00.693Z,7.47
2016-04-22T00:49:10.693Z,7.47
2016-04-22T00:49:20.695Z,7.43
2016-04-22T00:49:30.695Z,7.47
2016-04-22T00:49:40.695Z,7.47
2016-04-22T00:49:50.711Z,7.47
2016-04-22T00:50:00.711Z,7.44
2016-04-22T00:50:10.711Z,7.46
2016-04-22T00:50:20.731Z,7.46
2016-04-22T00:50:30.731Z,7.55
2016-04-22T00:50:40.731Z,7.47
2016-04-22T00:50:50.731Z,7.4
2016-04-22T00:51:00.746Z,7.44
2016-04-22T00:51:10.746Z,7.44
2016-04-22T00:51:20.748Z,7.46
2016-04-22T00:51:30.748Z,7.4
2016-04-22T00:51:40.764Z,7.44
2016-04-22T00:51:50.764Z,7.44
2016-04-22T00:52:00.764Z,7.47
2016-04-22T00:52:10.779Z,7.5
2016-04-22T00:52:20.782Z,7.46
2016-04-22T00:52:30.782Z,7.44
2016-04-22T00:52:40.782Z,7.44
2016-04-22T00:52:50.782Z,7.46
2016-04-22T00:53:00.798Z,7.4
2016-04-22T00:53:10.798Z,7.46
2016-04-22T00:53:20.801Z,7.39
2016-04-22T00:53:30.817Z,7.44
2016-04-22T00:53:40.817Z,7.36
2016-04-22T00:53:50.817Z,7.51
2016-04-22T00:54:00.817Z,7.44
2016-04-22T00:54:10.832Z,7.4
2016-04-22T00:54:20.835Z,7.37
2016-04-22T00:54:30.835Z,7.48
2016-04-22T00:54:40.851Z,7.33
2016-04-22T00:54:50.851Z,7.36
2016-04-22T00:55:00.851Z,7.33
2016-04-22T00:55:10.851Z,7.33
2016-04-22T00:55:20.869Z,7.48
2016-04-22T00:55:30.869Z,7.4
2016-04-22T00:55:40.869Z,7.36
2016-04-22T00:55:50.869Z,7.37
2016-04-22T00:56:00.869Z,7.36
2016-04-22T00:56:10.884Z,7.39
2016-04-22T00:56:20.886Z,7.37
2016-04-22T00:56:30.886Z,7.36
2016-04-22T00:56:40.917Z,7.39
2016-04-22T00:56:50.902Z,7.39
2016-04-22T00:57:00.902Z,7.36
2016-04-22T00:57:10.902Z,7.32
2016-04-22T00:57:20.920Z,7.33
2016-04-22T00:57:30.920Z,7.37
2016-04-22T00:57:40.920Z,7.32
2016-04-22T00:57:50.920Z,7.33
2016-04-22T00:58:00.936Z,7.36
2016-04-22T00:58:10.936Z,7.36
2016-04-22T00:58:20.939Z,7.32
2016-04-22T00:58:30.939Z,7.32
2016-04-22T00:58:40.955Z,7.36
2016-04-22T00:58:50.955Z,7.36
2016-04-22T00:59:00.955Z,7.31
2016-04-22T00:59:10.955Z,7.29
2016-04-22T00:59:20.973Z,7.36
2016-04-22T00:59:30.973Z,7.32
2016-04-22T00:59:40.973Z,7.32
2016-04-22T00:59:50.973Z,7.32
2016-04-22T01:00:00.989Z,7.36
2016-04-22T01:00:10.989Z,7.28
2016-04-22T01:00:20.991Z,7.31
2016-04-22T01:00:31.007Z,7.25
2016-04-22T01:00:41.007Z,7.29
2016-04-22T01:00:51.007Z,7.26
2016-04-22T01:01:01.007Z,7.28
2016-04-22T01:01:11.022Z,7.29
2016-04-22T01:01:21.025Z,7.33
2016-04-22T01:01:31.025Z,7.29
2016-04-22T01:01:41.025Z,7.25
2016-04-22T01:01:51.041Z,7.29
2016-04-22T01:02:01.041Z,7.21
2016-04-22T01:02:11.041Z,7.26
2016-04-22T01:02:21.043Z,7.32
2016-04-22T01:02:31.058Z,7.29
2016-04-22T01:02:41.058Z,7.29
2016-04-22T01:02:51.058Z,7.31
2016-04-22T01:03:01.058Z,7.26
2016-04-22T01:03:11.074Z,7.29
2016-04-22T01:03:21.077Z,7.29
2016-04-22T01:03:31.077Z,7.29
2016-04-22T01:03:41.077Z,7.31
2016-04-22T01:03:51.093Z,7.18
2016-04-22T01:04:01.093Z,7.18
2016-04-22T01:04:11.093Z,7.19
2016-04-22T01:04:21.111Z,7.26
2016-04-22T01:04:31.111Z,7.05
2016-04-22T01:04:41.111Z,7.28
2016-04-22T01:04:51.111Z,7.22
2016-04-22T01:05:01.127Z,7.15
2016-04-22T01:05:11.127Z,7.15
2016-04-22T01:05:21.130Z,7.15
2016-04-22T01:05:31.130Z,7.21
2016-04-22T01:05:41.146Z,7.13
2016-04-22T01:05:51.146Z,7.14
2016-04-22T01:06:01.146Z,7.21
2016-04-22T01:06:11.146Z,7.28
2016-04-22T01:06:21.163Z,7.15
2016-04-22T01:06:31.163Z,7.14
2016-04-22T01:06:41.163Z,7.19
2016-04-22T01:06:51.163Z,7.22
2016-04-22T01:07:01.179Z,7.19
2016-04-22T01:07:11.179Z,7.22
2016-04-22T01:07:21.182Z,7.22
2016-04-22T01:07:31.182Z,7.11
2016-04-22T01:07:41.197Z,7.13
2016-04-22T01:07:51.197Z,7.19
2016-04-22T01:08:01.197Z,7.19
2016-04-22T01:08:11.197Z,7.23
2016-04-22T01:08:21.216Z,7.25
2016-04-22T01:08:31.216Z,7.19
2016-04-22T01:08:41.232Z,7.19
2016-04-22T01:08:51.232Z,7.25
2016-04-22T01:09:01.232Z,7.14
2016-04-22T01:09:11.232Z,7.15
2016-04-22T01:09:21.234Z,7.21
2016-04-22T01:09:31.249Z,7.18
2016-04-22T01:09:41.249Z,7.18
2016-04-22T01:09:51.249Z,7.15
2016-04-22T01:10:01.249Z,7.15
2016-04-22T01:10:11.265Z,7.21
2016-04-22T01:10:21.268Z,7.13
2016-04-22T01:10:31.284Z,7.19
2016-04-22T01:10:41.268Z,7.21
2016-04-22T01:10:51.284Z,7.15
2016-04-22T01:11:01.284Z,7.13
2016-04-22T01:11:11.284Z,7.18
2016-04-22T01:11:21.287Z,7.21
2016-04-22T01:11:31.318Z,7.14
2016-04-22T01:11:41.302Z,7.14
2016-04-22T01:11:51.302Z,7.11
2016-04-22T01:12:01.302Z,7.14
2016-04-22T01:12:11.318Z,7.14
2016-04-22T01:12:21.321Z,7.19
2016-04-22T01:12:31.321Z,7.08
2016-04-22T01:12:41.321Z,7.13
2016-04-22T01:12:51.336Z,7.15
2016-04-22T01:13:01.336Z,7.11
2016-04-22T01:13:11.336Z,7.1
2016-04-22T01:13:21.354Z,7.13
2016-04-22T01:13:31.354Z,7.08
2016-04-22T01:13:41.354Z,7.11
2016-04-22T01:13:51.354Z,7.07
2016-04-22T01:14:01.370Z,7.14
2016-04-22T01:14:11.370Z,7.08
2016-04-22T01:14:21.373Z,7.14
2016-04-22T01:14:31.373Z,7.11
2016-04-22T01:14:41.388Z,7.15
2016-04-22T01:14:51.388Z,7.04
2016-04-22T01:15:01.388Z,7.18
2016-04-22T01:15:11.404Z,7.15
2016-04-22T01:15:21.407Z,7.11
2016-04-22T01:15:31.407Z,7.14
2016-04-22T01:15:41.407Z,7.13
2016-04-22T01:15:51.423Z,7.08
2016-04-22T01:16:01.423Z,7.15
2016-04-22T01:16:11.423Z,7.1
2016-04-22T01:16:21.425Z,7.05
2016-04-22T01:16:31.425Z,7.08
2016-04-22T01:16:41.440Z,7.03
2016-04-22T01:16:51.440Z,7.11
2016-04-22T01:17:01.440Z,7.03
2016-04-22T01:17:11.456Z,7.05
2016-04-22T01:17:21.459Z,7.05
2016-04-22T01:17:31.459Z,7.1
2016-04-22T01:17:41.474Z,7
2016-04-22T01:17:51.474Z,7.03
2016-04-22T01:18:01.474Z,7.03
2016-04-22T01:18:11.474Z,7.01
2016-04-22T01:18:21.477Z,7.01
2016-04-22T01:18:31.493Z,7.01
2016-04-22T01:18:41.493Z,6.97
2016-04-22T01:18:51.493Z,6.97
2016-04-22T01:19:01.493Z,7.08
2016-04-22T01:19:11.493Z,7.04
2016-04-22T01:19:21.511Z,7.01
2016-04-22T01:19:31.511Z,7.03
2016-04-22T01:19:41.526Z,7
2016-04-22T01:19:51.526Z,6.96
2016-04-22T01:20:01.526Z,7.03
2016-04-22T01:20:11.526Z,7.04
2016-04-22T01:20:21.529Z,7.01
2016-04-22T01:20:31.545Z,7.03
2016-04-22T01:20:41.545Z,7.01
2016-04-22T01:20:51.545Z,6.97
2016-04-22T01:21:01.545Z,7.05
2016-04-22T01:21:11.561Z,7.01
2016-04-22T01:21:21.564Z,7.04
2016-04-22T01:21:31.564Z,7.01
2016-04-22T01:21:41.579Z,7.04
2016-04-22T01:21:51.579Z,7.05
2016-04-22T01:22:01.579Z,7.03
2016-04-22T01:22:11.579Z,7.04
2016-04-22T01:22:21.598Z,7.04
2016-04-22T01:22:31.598Z,7.05
2016-04-22T01:22:41.598Z,6.95
2016-04-22T01:22:51.598Z,6.95
2016-04-22T01:23:01.613Z,7.01
2016-04-22T01:23:11.613Z,7.03
2016-04-22T01:23:21.615Z,6.97
2016-04-22T01:23:31.615Z,7
2016-04-22T01:23:41.631Z,6.92
2016-04-22T01:23:51.631Z,6.93
2016-04-22T01:24:01.631Z,6.95
2016-04-22T01:24:11.631Z,7
2016-04-22T01:24:21.650Z,7.03
2016-04-22T01:24:31.650Z,7.05
2016-04-22T01:24:41.650Z,7.03
2016-04-22T01:24:51.650Z,7.04
2016-04-22T01:25:01.665Z,7.01
2016-04-22T01:25:11.681Z,6.97
2016-04-22T01:25:21.668Z,7.04
2016-04-22T01:25:31.684Z,7.01
2016-04-22T01:25:41.684Z,6.97
2016-04-22T01:25:51.684Z,6.97
2016-04-22T01:26:01.684Z,6.93
2016-04-22T01:26:11.700Z,7.05
2016-04-22T01:26:21.717Z,6.97
2016-04-22T01:26:31.717Z,6.96
2016-04-22T01:26:41.702Z,6.95
2016-04-22T01:26:51.717Z,7.01
2016-04-22T01:27:01.717Z,6.97
2016-04-22T01:27:11.717Z,6.97
2016-04-22T01:27:21.720Z,6.96
2016-04-22T01:27:31.736Z,6.92
2016-04-22T01:27:41.736Z,7.01
2016-04-22T01:27:51.736Z,7.03
2016-04-22T01:28:01.736Z,7.03
2016-04-22T01:28:11.751Z,6.92
2016-04-22T01:28:21.754Z,6.92
2016-04-22T01:28:31.754Z,7
2016-04-22T01:28:41.754Z,6.97
2016-04-22T01:28:51.770Z,6.89
2016-04-22T01:29:01.770Z,6.93
2016-04-22T01:29:11.770Z,6.97
2016-04-22T01:29:21.772Z,6.9
2016-04-22T01:29:31.788Z,6.95
2016-04-22T01:29:41.788Z,6.96
2016-04-22T01:29:51.788Z,6.95
2016-04-22T01:30:01.788Z,7.01
2016-04-22T01:30:11.803Z,6.9
2016-04-22T01:30:21.806Z,6.95
2016-04-22T01:30:31.806Z,6.96
2016-04-22T01:30:41.806Z,6.92
2016-04-22T01:30:51.822Z,6.92
2016-04-22T01:31:01.822Z,6.87
2016-04-22T01:31:11.838Z,6.96
2016-04-22T01:31:21.856Z,6.87
2016-04-22T01:31:31.841Z,6.92
2016-04-22T01:31:41.841Z,6.95
2016-04-22T01:31:51.841Z,6.92
2016-04-22T01:32:01.856Z,6.95
2016-04-22T01:32:11.856Z,6.92
2016-04-22T01:32:21.858Z,6.95
2016-04-22T01:32:31.858Z,6.96
2016-04-22T01:32:41.874Z,6.93
2016-04-22T01:32:51.874Z,6.86
2016-04-22T01:33:01.874Z,6.93
2016-04-22T01:33:11.889Z,6.86
2016-04-22T01:33:21.892Z,6.96
2016-04-22T01:33:31.892Z,7
2016-04-22T01:33:41.892Z,6.92
2016-04-22T01:33:51.892Z,6.95
2016-04-22T01:34:01.908Z,6.95
2016-04-22T01:34:11.908Z,6.9
2016-04-22T01:34:21.911Z,6.93
2016-04-22T01:34:31.927Z,6.95
2016-04-22T01:34:41.927Z,6.89
2016-04-22T01:34:51.927Z,6.97
2016-04-22T01:35:01.927Z,6.92
2016-04-22T01:35:11.942Z,6.95
2016-04-22T01:35:21.945Z,6.96
2016-04-22T01:35:31.945Z,6.92
2016-04-22T01:35:41.945Z,6.92
2016-04-22T01:35:51.961Z,6.95
2016-04-22T01:36:01.961Z,6.9
2016-04-22T01:36:11.961Z,6.96
2016-04-22T01:36:21.963Z,6.96
2016-04-22T01:36:31.979Z,6.93
2016-04-22T01:36:41.979Z,6.97
2016-04-22T01:36:51.979Z,6.97
2016-04-22T01:37:01.979Z,6.92
2016-04-22T01:37:11.994Z,6.92
2016-04-22T01:37:21.997Z,6.95
2016-04-22T01:37:31.997Z,6.93
2016-04-22T01:37:42.013Z,6.96
2016-04-22T01:37:52.013Z,6.93
2016-04-22T01:38:02.013Z,6.93
2016-04-22T01:38:12.013Z,7.01
2016-04-22T01:38:22.016Z,6.9
2016-04-22T01:38:32.031Z,6.95
2016-04-22T01:38:42.031Z,6.9
2016-04-22T01:38:52.031Z,6.96
2016-04-22T01:39:02.047Z,6.95
2016-04-22T01:39:12.047Z,6.9
2016-04-22T01:39:22.049Z,6.95
2016-04-22T01:39:32.049Z,6.87
2016-04-22T01:39:42.065Z,6.9
2016-04-22T01:39:52.065Z,6.95
2016-04-22T01:40:02.065Z,6.95
2016-04-22T01:40:12.065Z,6.93
2016-04-22T01:40:22.083Z,6.87
2016-04-22T01:40:32.083Z,7.01
2016-04-22T01:40:42.083Z,6.87
2016-04-22T01:40:52.083Z,6.89
2016-04-22T01:41:02.083Z,6.92
2016-04-22T01:41:12.115Z,6.95
2016-04-22T01:41:22.102Z,6.92
2016-04-22T01:41:32.118Z,6.87
2016-04-22T01:41:42.118Z,6.87
2016-04-22T01:41:52.118Z,6.93
2016-04-22T01:42:02.118Z,6.86
2016-04-22T01:42:12.118Z,6.87
2016-04-22T01:42:22.136Z,6.85
2016-04-22T01:42:32.136Z,6.86
2016-04-22T01:42:42.152Z,6.87
2016-04-22T01:42:52.152Z,6.92
2016-04-22T01:43:02.152Z,6.9
2016-04-22T01:43:12.152Z,6.82
2016-04-22T01:43:22.154Z,6.83
2016-04-22T01:43:32.154Z,6.85
2016-04-22T01:43:42.169Z,6.8
2016-04-22T01:43:52.169Z,6.85
2016-04-22T01:44:02.169Z,6.85
2016-04-22T01:44:12.185Z,6.85
2016-04-22T01:44:22.188Z,6.83
2016-04-22T01:44:32.188Z,6.83
2016-04-22T01:44:42.188Z,6.77
2016-04-22T01:44:52.204Z,6.83
2016-04-22T01:45:02.204Z,6.87
2016-04-22T01:45:12.204Z,6.87
2016-04-22T01:45:22.221Z,6.85
2016-04-22T01:45:32.221Z,6.86
2016-04-22T01:45:42.221Z,6.86
2016-04-22T01:45:52.221Z,6.78
2016-04-22T01:46:02.221Z,6.86
2016-04-22T01:46:12.237Z,6.85
2016-04-22T01:46:22.240Z,6.86
2016-04-22T01:46:32.240Z,6.82
2016-04-22T01:46:42.240Z,6.9
2016-04-22T01:46:52.256Z,6.83
2016-04-22T01:47:02.256Z,6.83
2016-04-22T01:47:12.271Z,6.82
2016-04-22T01:47:22.259Z,6.87
2016-04-22T01:47:32.274Z,6.85
2016-04-22T01:47:42.274Z,6.85
2016-04-22T01:47:52.274Z,6.87
2016-04-22T01:48:02.274Z,6.75
2016-04-22T01:48:12.290Z,6.83
2016-04-22T01:48:22.293Z,6.75
2016-04-22T01:48:32.293Z,6.86
2016-04-22T01:48:42.308Z,6.8
2016-04-22T01:48:52.308Z,6.86
2016-04-22T01:49:02.308Z,6.77
2016-04-22T01:49:12.308Z,6.74
2016-04-22T01:49:22.326Z,6.77
2016-04-22T01:49:32.326Z,6.75
2016-04-22T01:49:42.326Z,6.85
2016-04-22T01:49:52.326Z,6.8
2016-04-22T01:50:02.342Z,6.8
2016-04-22T01:50:12.342Z,6.83
2016-04-22T01:50:22.345Z,6.78
2016-04-22T01:50:32.360Z,6.77
2016-04-22T01:50:42.360Z,6.82
2016-04-22T01:50:52.360Z,6.85
2016-04-22T01:51:02.360Z,6.74
2016-04-22T01:51:12.360Z,6.74
2016-04-22T01:51:22.379Z,6.72
2016-04-22T01:51:32.379Z,6.77
2016-04-22T01:51:42.379Z,6.71
2016-04-22T01:51:52.395Z,6.78
2016-04-22T01:52:02.395Z,6.74
2016-04-22T01:52:12.395Z,6.71
2016-04-22T01:52:22.397Z,6.78
2016-04-22T01:52:32.412Z,6.74
2016-04-22T01:52:42.412Z,6.8
2016-04-22T01:52:52.412Z,6.74
2016-04-22T01:53:02.412Z,6.83
2016-04-22T01:53:12.428Z,6.68
2016-04-22T01:53:22.431Z,6.71
2016-04-22T01:53:32.431Z,6.7
2016-04-22T01:53:42.431Z,6.72
2016-04-22T01:53:52.446Z,6.75
2016-04-22T01:54:02.446Z,6.71
2016-04-22T01:54:12.446Z,6.71
2016-04-22T01:54:22.449Z,6.72
2016-04-22T01:54:32.449Z,6.68
2016-04-22T01:54:42.465Z,6.64
2016-04-22T01:54:52.465Z,6.68
2016-04-22T01:55:02.465Z,6.68
2016-04-22T01:55:12.481Z,6.7
2016-04-22T01:55:22.484Z,6.67
2016-04-22T01:55:32.484Z,6.68
2016-04-22T01:55:42.484Z,6.71
2016-04-22T01:55:52.499Z,6.64
2016-04-22T01:56:02.499Z,6.72
2016-04-22T01:56:12.499Z,6.7
2016-04-22T01:56:22.517Z,6.68
2016-04-22T01:56:32.517Z,6.71
2016-04-22T01:56:42.517Z,6.72
2016-04-22T01:56:52.517Z,6.67
2016-04-22T01:57:02.517Z,6.57
2016-04-22T01:57:12.533Z,6.6
2016-04-22T01:57:22.536Z,6.67
2016-04-22T01:57:32.536Z,6.72
2016-04-22T01:57:42.567Z,6.56
2016-04-22T01:57:52.551Z,6.62
2016-04-22T01:58:02.551Z,6.65
2016-04-22T01:58:12.551Z,6.64
2016-04-22T01:58:22.553Z,6.59
2016-04-22T01:58:32.569Z,6.59
2016-04-22T01:58:42.569Z,6.68
2016-04-22T01:58:52.569Z,6.62
2016-04-22T01:59:02.584Z,6.65
2016-04-22T01:59:12.584Z,6.68
2016-04-22T01:59:22.587Z,6.59
2016-04-22T01:59:32.587Z,6.72
2016-04-22T01:59:42.603Z,6.59
2016-04-22T01:59:52.603Z,6.71
2016-04-22T02:00:02.603Z,6.62
2016-04-22T02:00:12.603Z,6.64
2016-04-22T02:00:22.622Z,6.62
2016-04-22T02:00:32.622Z,6.6
2016-04-22T02:00:42.637Z,6.6
2016-04-22T02:00:52.637Z,6.53
2016-04-22T02:01:02.637Z,6.6
2016-04-22T02:01:12.637Z,6.53
2016-04-22T02:01:22.640Z,6.54
2016-04-22T02:01:32.656Z,6.57
2016-04-22T02:01:42.656Z,6.56
2016-04-22T02:01:52.656Z,6.53
2016-04-22T02:02:02.656Z,6.54
2016-04-22T02:02:12.656Z,6.56
2016-04-22T02:02:22.674Z,6.54
2016-04-22T02:02:32.674Z,6.62
2016-04-22T02:02:42.674Z,6.59
2016-04-22T02:02:52.674Z,6.54
2016-04-22T02:03:02.689Z,6.6
2016-04-22T02:03:12.689Z,6.6
2016-04-22T02:03:22.692Z,6.6
2016-04-22T02:03:32.692Z,6.59
2016-04-22T02:03:42.708Z,6.59
2016-04-22T02:03:52.708Z,6.6
2016-04-22T02:04:02.708Z,6.62
2016-04-22T02:04:12.723Z,6.57
2016-04-22T02:04:22.726Z,6.57
2016-04-22T02:04:32.726Z,6.59
2016-04-22T02:04:42.726Z,6.53
2016-04-22T02:04:52.726Z,6.53
2016-04-22T02:05:02.742Z,6.59
2016-04-22T02:05:12.742Z,6.59
2016-04-22T02:05:22.744Z,6.57
2016-04-22T02:05:32.760Z,6.53
2016-04-22T02:05:42.760Z,6.62
2016-04-22T02:05:52.760Z,6.59
2016-04-22T02:06:02.760Z,6.6
2016-04-22T02:06:12.775Z,6.6
2016-04-22T02:06:22.778Z,6.57
2016-04-22T02:06:32.778Z,6.53
2016-04-22T02:06:42.778Z,6.54
2016-04-22T02:06:52.794Z,6.57
2016-04-22T02:07:02.794Z,6.56
2016-04-22T02:07:12.794Z,6.56
2016-04-22T02:07:22.797Z,6.56
2016-04-22T02:07:32.813Z,6.54
2016-04-22T02:07:42.813Z,6.56
2016-04-22T02:07:52.813Z,6.56
2016-04-22T02:08:02.813Z,6.56
2016-04-22T02:08:12.828Z,6.56
2016-04-22T02:08:22.847Z,6.59
2016-04-22T02:08:32.831Z,6.53
2016-04-22T02:08:42.831Z,6.54
2016-04-22T02:08:52.847Z,6.54
2016-04-22T02:09:02.847Z,6.57
2016-04-22T02:09:12.862Z,6.54
2016-04-22T02:09:22.864Z,6.53
2016-04-22T02:09:32.864Z,6.54
2016-04-22T02:09:42.864Z,6.53
2016-04-22T02:09:52.864Z,6.52
2016-04-22T02:10:02.864Z,6.47
2016-04-22T02:10:12.896Z,6.52
2016-04-22T02:10:22.883Z,6.56
2016-04-22T02:10:32.883Z,6.5
2016-04-22T02:10:42.899Z,6.57
2016-04-22T02:10:52.899Z,6.53
2016-04-22T02:11:02.899Z,6.46
2016-04-22T02:11:12.914Z,6.49
2016-04-22T02:11:22.917Z,6.52
2016-04-22T02:11:32.917Z,6.5
2016-04-22T02:11:42.917Z,6.52
2016-04-22T02:11:52.917Z,6.54
2016-04-22T02:12:02.933Z,6.49
2016-04-22T02:12:12.933Z,6.44
2016-04-22T02:12:22.951Z,6.53
2016-04-22T02:12:32.951Z,6.53
2016-04-22T02:12:42.951Z,6.5
2016-04-22T02:12:52.951Z,6.47
2016-04-22T02:13:02.951Z,6.47
2016-04-22T02:13:12.951Z,6.44
2016-04-22T02:13:22.969Z,6.53
2016-04-22T02:13:32.969Z,6.44
2016-04-22T02:13:42.969Z,6.5